Airfield :
LOGIN :

Register | Disclaimer

   EN    FR    IT 

 










Legend :    VFR   Marginal VFR   IFR   Intensive IFR   Very Intensive IFR
Visi :
Ceiling :
>= 8 km
>= 3000ft
5 to 8 km
1000 to 3000 ft
1500m to 5 km
500 to 1000 ft
800 to 1500m
200 to 500 ft
< 800m
< 200 ft
Symbols :   Thunderstorms  Fog  Heavy snow  Heavy precipitations  Wind > 20 kt
SIGMETs :     Misc.  Thunderstorms  Icing  Turbulence  Mountain Waves  Volcanic Ashes






- Airport Elevation : 1535 ft
- IATA code : OUD


GMFO - Ouja Angads

CURRENT METAR :
  • 221300Z 16007KT 9999 FEW026 SCT076 15/04 Q1015 NOSIG

EXPIRED METARs :
  • 221230Z 16007KT 120V180 9999 FEW026 BKN076 15/04 Q1015 NOSIG
  • 221200Z 18008KT 9999 FEW026 BKN076 14/04 Q1015 NOSIG
  • 221130Z 19007KT 9999 FEW026 BKN076 14/05 Q1015 NOSIG
  • 221100Z 14004KT 9999 FEW026 BKN076 12/06 Q1016 NOSIG
  • 221030Z 13004KT 090V160 9999 FEW026 BKN100 12/05 Q1016 NOSIG

TAF TAF GMFO
Valid from the 22 at 12:00 until the 23 at 18:00 UTC


221100Z 2212/2318 21006KT 9999 FEW026 BKN056
BECMG 2308/2312 19008KT 9999 FEW026



MET'MAP, your aeronautical weather chart ! - Copyright ORBIFLY December 2007 - Disclaimer

ORBIFLY MET'MAP TEAM :

Programming & Development : Alexandra Zaïnal
Concept & original design : Baudouin d'Aumeries
Assistance for programming : Marc-Olivier Méhu
Technical & hardware support : Manuel Goepfert

Contact : metmap@orbifly.com




SOURCES & CREDITS :

   NOAA